Time;durP1;ratioP1;P1;durP2;ratioP2;P2;SDS_P1;SDS_P2;PMS_P1;PMS_P2;Temp;Humidity;BMP_temperature;BMP_pressure;BME280_temperature;BME280_humidity;BME280_pressure;Samples;Min_cycle;Max_cycle;Signal;HPM_P1;HPM_P2
2023/10/13 00:01:33;;;;;;;14.82;9.38;;;;;;;16.47;100.00;101021.16;5106136;28;20478;-69
2023/10/13 00:03:59;;;;;;;15.68;8.85;;;;;;;16.48;100.00;101025.50;5070344;28;20131;-71
2023/10/13 00:06:26;;;;;;;14.27;8.77;;;;;;;16.47;100.00;101021.16;5072396;28;20099;-71
2023/10/13 00:08:51;;;;;;;14.18;8.60;;;;;;;16.46;100.00;101019.50;5078087;28;20145;-71
2023/10/13 00:11:18;;;;;;;13.63;8.48;;;;;;;16.46;100.00;101014.03;5092249;28;20496;-72
2023/10/13 00:13:50;;;;;;;16.58;8.70;;;;;;;16.47;100.00;101015.69;5074777;28;20048;-72
2023/10/13 00:16:21;;;;;;;12.32;8.57;;;;;;;16.45;100.00;101006.09;5071015;28;20044;-69
2023/10/13 00:18:54;;;;;;;11.93;7.97;;;;;;;16.44;100.00;101010.75;5072160;28;20063;-70
2023/10/13 00:21:31;;;;;;;14.40;8.65;;;;;;;16.43;100.00;101003.63;5072081;28;20029;-71
2023/10/13 00:23:59;;;;;;;15.55;7.95;;;;;;;16.41;100.00;101004.97;5084527;28;20044;-72
2023/10/13 00:26:29;;;;;;;15.77;7.72;;;;;;;16.40;100.00;100997.88;5087602;28;20391;-71
2023/10/13 00:29:01;;;;;;;14.65;8.98;;;;;;;16.40;100.00;100997.88;5090942;28;20028;-73
2023/10/13 00:31:33;;;;;;;15.40;8.27;;;;;;;16.37;100.00;101001.94;5092195;28;20056;-71
2023/10/13 00:34:09;;;;;;;12.20;7.63;;;;;;;16.36;100.00;100992.09;5078158;28;20070;-72
2023/10/13 00:36:35;;;;;;;13.63;7.57;;;;;;;16.34;100.00;100986.06;5092161;28;20073;-72
2023/10/13 00:39:07;;;;;;;17.48;8.40;;;;;;;16.35;100.00;100987.72;5091891;28;20043;-70
2023/10/13 00:41:50;;;;;;;15.48;7.85;;;;;;;16.34;100.00;100988.00;5092052;28;20027;-69
2023/10/13 00:44:16;;;;;;;12.65;7.75;;;;;;;16.33;100.00;100987.16;5092281;28;20098;-71
2023/10/13 00:46:44;;;;;;;14.85;7.05;;;;;;;16.33;100.00;100987.16;5092233;28;20028;-73
2023/10/13 00:49:12;;;;;;;13.38;7.43;;;;;;;16.31;100.00;100978.41;5091847;28;20491;-69
2023/10/13 00:51:46;;;;;;;13.48;7.63;;;;;;;16.32;100.00;100973.75;5092316;28;20032;-72
2023/10/13 00:54:18;;;;;;;12.60;7.60;;;;;;;16.31;100.00;100975.66;5074697;28;20029;-71
2023/10/13 00:56:48;;;;;;;;;;;;;;;16.37;100.00;100977.34;5074966;28;20025;-72
2023/10/13 00:59:17;;;;;;;13.02;7.38;;;;;;;16.29;100.00;100973.19;5078101;28;19927;-72
2023/10/13 01:01:43;;;;;;;19.80;7.78;;;;;;;16.28;100.00;100963.34;5092391;28;20119;-72
2023/10/13 01:04:12;;;;;;;15.25;7.30;;;;;;;16.27;100.00;100961.72;5092669;28;20028;-71
2023/10/13 01:06:41;;;;;;;14.93;7.80;;;;;;;16.26;100.00;100953.75;5094489;28;20024;-72
2023/10/13 01:09:17;;;;;;;15.57;7.18;;;;;;;16.27;100.00;100960.88;5094039;28;20555;-69
2023/10/13 01:11:53;;;;;;;14.10;7.32;;;;;;;16.27;100.00;100955.41;5095610;28;20467;-69
2023/10/13 01:14:20;;;;;;;14.65;7.05;;;;;;;16.26;100.00;100953.75;5074168;28;20036;-71
2023/10/13 01:16:46;;;;;;;12.02;6.82;;;;;;;16.23;100.00;100948.81;5075492;28;20033;-70
2023/10/13 01:19:19;;;;;;;12.02;6.55;;;;;;;16.24;100.00;100948.56;5073940;28;20095;-72
2023/10/13 01:21:47;;;;;;;11.65;6.53;;;;;;;16.23;100.00;100929.72;5075391;28;20028;-70
2023/10/13 01:24:17;;;;;;;14.20;6.18;;;;;;;16.23;100.00;100938.75;5076714;28;20044;-71
2023/10/13 01:26:51;;;;;;;14.80;6.93;;;;;;;16.23;100.00;100921.53;5095458;28;20460;-71
2023/10/13 01:29:18;;;;;;;15.60;6.47;;;;;;;16.22;100.00;100917.16;5095464;28;20464;-71
2023/10/13 01:31:47;;;;;;;11.13;6.45;;;;;;;16.20;100.00;100917.44;5094169;28;20028;-70
2023/10/13 01:34:24;;;;;;;12.95;6.13;;;;;;;16.20;100.00;100916.59;5074749;28;20032;-71
2023/10/13 01:36:53;;;;;;;13.27;6.55;;;;;;;16.20;100.00;100916.59;5073858;28;20024;-72
2023/10/13 01:39:26;;;;;;;14.00;5.90;;;;;;;16.18;100.00;100902.38;5075301;28;20033;-69
2023/10/13 01:41:55;;;;;;;13.32;6.22;;;;;;;16.18;100.00;100897.72;5073759;28;20529;-70
2023/10/13 01:44:30;;;;;;;10.75;5.78;;;;;;;16.19;100.00;100901.31;5074067;28;20557;-72
2023/10/13 01:46:59;;;;;;;12.60;6.55;;;;;;;16.16;100.00;100890.91;5074559;28;20115;-72
2023/10/13 01:49:25;;;;;;;11.52;5.97;;;;;;;16.17;100.00;100884.34;5076136;28;20111;-69
2023/10/13 01:51:50;;;;;;;11.40;5.75;;;;;;;16.16;100.00;100882.72;5095167;28;20024;-71
2023/10/13 01:54:16;;;;;;;13.00;6.43;;;;;;;16.17;100.00;100879.72;5073341;28;20554;-72
2023/10/13 01:56:44;;;;;;;11.95;6.47;;;;;;;16.17;100.00;100874.28;5074379;28;20086;-71
2023/10/13 01:59:11;;;;;;;14.00;6.60;;;;;;;16.16;100.00;100869.06;5074449;28;20124;-69
2023/10/13 02:01:36;;;;;;;12.98;6.72;;;;;;;16.16;100.00;100861.69;5071034;28;20036;-70
2023/10/13 02:04:03;;;;;;;11.68;6.63;;;;;;;16.18;100.00;100858.69;5073835;28;20029;-71
2023/10/13 02:06:33;;;;;;;13.88;6.47;;;;;;;16.18;100.00;100864.16;5074576;28;20032;-70
2023/10/13 02:09:06;;;;;;;11.85;6.35;;;;;;;16.17;100.00;100857.88;5072730;28;20107;-69
2023/10/13 02:11:35;;;;;;;16.20;7.15;;;;;;;16.19;100.00;100854.91;5084288;28;20024;-70
2023/10/13 02:14:01;;;;;;;12.43;7.15;;;;;;;16.19;100.00;100849.44;5093912;28;20525;-72
2023/10/13 02:16:27;;;;;;;13.38;6.97;;;;;;;16.20;100.00;100856.53;5074149;28;20041;-72
2023/10/13 02:18:53;;;;;;;13.90;7.53;;;;;;;16.21;100.00;100859.00;5073953;28;20460;-70
2023/10/13 02:21:18;;;;;;;12.57;7.22;;;;;;;16.20;100.00;100857.38;5077355;28;20060;-71
2023/10/13 02:23:59;;;;;;;13.15;7.82;;;;;;;16.23;100.00;100862.28;5094478;28;20063;-69
2023/10/13 02:26:31;;;;;;;17.30;8.85;;;;;;;16.24;100.00;100861.19;5110159;28;20077;-69
2023/10/13 02:28:58;;;;;;;17.15;8.77;;;;;;;16.23;100.00;100845.91;5092749;28;20055;-71
2023/10/13 02:31:27;;;;;;;19.30;9.00;;;;;;;16.23;100.00;100836.88;5093000;28;20414;-71
2023/10/13 02:33:53;;;;;;;18.08;10.73;;;;;;;16.24;100.00;100836.63;5109986;28;20028;-69
2023/10/13 02:36:22;;;;;;;16.30;9.80;;;;;;;16.25;100.00;100832.00;5092840;28;20028;-70
2023/10/13 02:38:50;;;;;;;18.98;10.80;;;;;;;16.23;100.00;100824.06;5093265;28;20038;-70
2023/10/13 02:41:25;;;;;;;20.50;11.30;;;;;;;16.23;100.00;100824.06;5073606;28;20033;-71
2023/10/13 02:43:50;;;;;;;19.92;11.38;;;;;;;16.25;100.00;100810.16;5073817;28;20523;-71
2023/10/13 02:46:16;;;;;;;19.45;11.68;;;;;;;16.28;100.00;100801.44;5073244;28;20112;-70
2023/10/13 02:48:42;;;;;;;19.20;11.65;;;;;;;16.28;100.00;100804.16;5071962;28;20052;-72
2023/10/13 02:51:17;;;;;;;19.15;12.27;;;;;;;16.26;100.00;100792.66;5090837;28;20036;-71
2023/10/13 02:53:48;;;;;;;23.00;13.40;;;;;;;16.28;100.00;100783.13;5094061;28;20028;-72
2023/10/13 02:56:13;;;;;;;21.67;14.23;;;;;;;16.32;100.00;100777.97;5093623;28;20028;-70
2023/10/13 02:58:43;;;;;;;23.10;13.57;;;;;;;16.32;100.00;100774.41;5092477;28;20031;-71
2023/10/13 03:01:18;;;;;;;21.20;13.27;;;;;;;16.31;100.00;100779.06;5073642;28;20028;-71
2023/10/13 03:03:47;;;;;;;23.45;14.05;;;;;;;16.33;100.00;100768.69;5093720;28;20047;-72
2023/10/13 03:06:14;;;;;;;22.50;14.68;;;;;;;16.32;100.00;100756.13;5080404;28;20054;-72
2023/10/13 03:08:39;;;;;;;23.80;15.27;;;;;;;16.32;100.00;100744.38;5091388;28;20044;-71
2023/10/13 03:11:05;;;;;;;24.58;15.52;;;;;;;16.33;100.00;100746.84;5091952;28;20036;-70
2023/10/13 03:13:33;;;;;;;22.45;15.40;;;;;;;16.33;100.00;100746.03;5093595;28;20131;-73
2023/10/13 03:15:59;;;;;;;24.98;15.27;;;;;;;16.33;100.00;100746.84;5092681;28;20467;-72
2023/10/13 03:18:24;;;;;;;23.33;15.82;;;;;;;16.35;100.00;100736.50;5093402;28;20115;-69
2023/10/13 03:20:56;;;;;;;25.85;15.93;;;;;;;16.35;100.00;100733.75;5092313;28;20055;-70
2023/10/13 03:23:21;;;;;;;26.33;17.05;;;;;;;16.36;100.00;100732.66;5092257;28;20039;-71
2023/10/13 03:25:49;;;;;;;26.23;16.45;;;;;;;16.39;100.00;100726.66;5093278;28;20034;-72
2023/10/13 03:28:17;;;;;;;28.88;17.63;;;;;;;16.39;100.00;100721.19;5092936;28;20484;-72
2023/10/13 03:30:42;;;;;;;25.08;17.42;;;;;;;16.39;100.00;100702.06;5086114;28;20482;-69
2023/10/13 03:33:13;;;;;;;28.75;18.92;;;;;;;16.41;100.00;100699.91;5091612;28;20036;-70
2023/10/13 03:35:42;;;;;;;28.00;18.48;;;;;;;16.42;100.00;100693.34;5091539;28;20395;-72
2023/10/13 03:38:16;;;;;;;29.08;18.60;;;;;;;16.43;100.00;100695.00;5092904;28;20036;-70
2023/10/13 03:41:06;;;;;;;30.05;19.90;;;;;;;16.44;100.00;100693.91;5092058;28;20675;-70
2023/10/13 03:43:31;;;;;;;32.78;20.25;;;;;;;16.44;100.00;100691.19;5091778;28;20032;-70
2023/10/13 03:46:07;;;;;;;30.58;19.58;;;;;;;16.44;100.00;100683.00;5092043;28;20031;-72
2023/10/13 03:48:40;;;;;;;30.35;20.10;;;;;;;16.46;100.00;100675.34;5092824;28;20035;-73
2023/10/13 03:51:14;;;;;;;31.52;20.23;;;;;;;16.47;100.00;100668.81;5086000;28;20032;-70
2023/10/13 03:53:53;;;;;;;28.10;19.63;;;;;;;16.48;100.00;100662.22;5092768;28;20024;-72
2023/10/13 03:56:38;;;;;;;29.20;19.95;;;;;;;16.50;100.00;100658.41;5092664;28;20103;-72
2023/10/13 03:59:06;;;;;;;31.33;19.55;;;;;;;16.54;100.00;100659.53;5092590;28;20024;-70
2023/10/13 04:01:45;;;;;;;27.50;18.83;;;;;;;16.55;100.00;100655.72;5070622;28;20035;-72
2023/10/13 04:04:11;;;;;;;31.73;19.65;;;;;;;16.58;100.00;100642.31;5087346;28;20036;-70
2023/10/13 04:17:14;;;;;;;24.98;17.38;;;;;;;16.63;100.00;100619.66;5091541;28;20225;-70
2023/10/13 04:20:12;;;;;;;28.55;17.27;;;;;;;16.64;100.00;100626.78;5089004;28;20035;-72
2023/10/13 04:30:57;;;;;;;27.92;16.35;;;;;;;16.71;100.00;100621.84;5086666;28;20039;-71
2023/10/13 04:36:16;;;;;;;22.83;15.55;;;;;;;16.76;100.00;100619.13;5096339;28;20036;-71
2023/10/13 04:41:42;;;;;;;25.40;15.20;;;;;;;16.80;100.00;100622.13;5090708;28;20043;-71
2023/10/13 04:49:35;;;;;;;24.77;14.40;;;;;;;16.83;100.00;100614.22;5075228;28;20364;-73
2023/10/13 04:55:09;;;;;;;20.92;14.13;;;;;;;16.84;100.00;100615.84;5075905;28;20044;-70
2023/10/13 04:57:33;;;;;;;20.20;12.95;;;;;;;16.87;100.00;100608.25;5074262;28;20106;-70
2023/10/13 05:05:21;;;;;;;16.90;10.43;;;;;;;16.89;100.00;100606.03;5075483;28;20529;-71
2023/10/13 06:28:40;;;;;;;13.57;7.28;;;;;;;16.93;100.00;100525.94;5087880;28;20431;-72
2023/10/13 06:30:17;;;;;;;15.25;7.57;;;;;;;16.81;100.00;100507.06;5073658;28;20089;-73
2023/10/13 06:32:46;;;;;;;13.32;7.15;;;;;;;16.81;100.00;100500.81;5074141;28;20036;-77
2023/10/13 06:35:23;;;;;;;26.40;8.02;;;;;;;16.81;100.00;100496.16;5081770;28;20048;-71
2023/10/13 06:37:50;;;;;;;20.08;7.20;;;;;;;16.80;100.00;100491.81;5094277;28;20028;-72
2023/10/13 06:40:33;;;;;;;16.90;7.10;;;;;;;16.82;100.00;100486.06;5089285;28;20039;-76
2023/10/13 06:43:17;;;;;;;16.35;7.20;;;;;;;16.83;100.00;100483.03;5090706;28;20044;-72
2023/10/13 06:45:56;;;;;;;17.15;7.25;;;;;;;16.84;100.00;100476.47;5086169;28;20111;-73
2023/10/13 06:48:23;;;;;;;15.80;7.32;;;;;;;16.86;100.00;100475.38;5093421;28;20471;-75
2023/10/13 06:50:49;;;;;;;17.92;7.50;;;;;;;16.86;100.00;100464.44;5082299;28;20035;-74
2023/10/13 06:53:16;;;;;;;15.63;6.60;;;;;;;16.87;100.00;100468.88;5079141;28;20016;-75
2023/10/13 06:55:47;;;;;;;19.27;7.68;;;;;;;16.89;100.00;100463.94;5087949;28;20028;-80
2023/10/13 06:58:14;;;;;;;20.38;7.70;;;;;;;16.89;100.00;100459.28;5084912;28;20476;-74
2023/10/13 07:00:52;;;;;;;23.50;7.70;;;;;;;16.91;100.00;100465.28;5087374;28;20024;-73
2023/10/13 07:03:18;;;;;;;20.13;7.43;;;;;;;16.91;100.00;100442.59;5093616;28;20059;-72
2023/10/13 07:05:44;;;;;;;22.65;8.00;;;;;;;16.92;100.00;100447.78;5093433;28;20055;-74
2023/10/13 07:08:14;;;;;;;17.75;7.60;;;;;;;16.94;100.00;100442.03;5091917;28;20081;-74
2023/10/13 07:11:02;;;;;;;17.45;7.80;;;;;;;16.95;100.00;100440.94;5093417;28;20114;-74
2023/10/13 07:13:28;;;;;;;19.88;7.82;;;;;;;16.95;100.00;100436.31;5091679;28;20080;-73
2023/10/13 07:15:59;;;;;;;20.77;7.72;;;;;;;16.97;100.00;100427.84;5093307;28;20024;-74
2023/10/13 07:18:25;;;;;;;22.38;7.95;;;;;;;16.97;100.00;100423.19;5091758;28;20012;-74
2023/10/13 07:20:50;;;;;;;20.90;7.82;;;;;;;16.98;100.00;100421.25;5092887;28;20102;-73
2023/10/13 07:23:19;;;;;;;21.48;7.97;;;;;;;17.01;100.00;100426.16;5092728;28;20055;-74
2023/10/13 07:25:56;;;;;;;24.20;7.78;;;;;;;17.02;100.00;100419.63;5092952;28;20468;-74
2023/10/13 07:28:22;;;;;;;19.80;7.18;;;;;;;17.04;100.00;100417.41;5092871;28;20039;-74
2023/10/13 07:33:21;;;;;;;19.45;7.15;;;;;;;17.08;100.00;100418.50;5092254;28;20089;-74
2023/10/13 07:35:53;;;;;;;18.60;7.20;;;;;;;17.10;100.00;100420.94;5090968;28;20024;-73
2023/10/13 07:38:21;;;;;;;16.95;7.00;;;;;;;17.12;100.00;100422.31;5092045;28;20019;-73
2023/10/13 07:40:50;;;;;;;25.88;7.95;;;;;;;17.14;100.00;100422.84;5092544;28;20024;-70
2023/10/13 07:43:21;;;;;;;23.83;7.82;;;;;;;17.18;100.00;100414.88;5090764;28;20127;-73
2023/10/13 07:45:50;;;;;;;16.95;6.53;;;;;;;17.23;100.00;100420.34;5091236;28;20390;-74
2023/10/13 07:48:20;;;;;;;16.95;6.50;;;;;;;17.24;100.00;100408.34;5091986;28;20455;-73
2023/10/13 07:50:58;;;;;;;19.65;6.65;;;;;;;17.28;100.00;100414.03;5091053;28;20040;-74
2023/10/13 07:53:23;;;;;;;19.05;6.85;;;;;;;17.31;100.00;100408.00;5092126;28;20047;-74
2023/10/13 07:55:55;;;;;;;21.17;6.57;;;;;;;17.32;100.00;100394.06;5090965;28;20020;-72
2023/10/13 07:58:26;;;;;;;17.35;6.90;;;;;;;17.34;100.00;100404.72;5091983;28;20107;-74
2023/10/13 08:01:07;;;;;;;20.40;6.20;;;;;;;17.38;100.00;100400.31;5086721;28;20036;-74
2023/10/13 08:03:45;;;;;;;19.85;6.63;;;;;;;17.40;100.00;100403.59;5092215;28;20055;-74
2023/10/13 08:08:43;;;;;;;15.88;5.88;;;;;;;17.46;100.00;100394.25;5091258;28;20491;-73
2023/10/13 08:13:59;;;;;;;21.25;6.07;;;;;;;17.53;100.00;100397.50;5092717;28;20188;-74
2023/10/13 08:17:07;;;;;;;14.80;6.05;;;;;;;17.59;100.00;100394.72;5091150;28;20149;-73
2023/10/13 08:19:30;;;;;;;19.42;5.75;;;;;;;17.65;100.00;100396.34;5089792;28;20110;-75
2023/10/13 08:21:59;;;;;;;17.40;6.00;;;;;;;17.71;100.00;100392.47;5091305;28;20039;-72
2023/10/13 08:30:26;;;;;;;20.08;6.05;;;;;;;17.95;100.00;100397.25;5092188;28;20078;-73
2023/10/13 08:32:54;;;;;;;17.55;5.72;;;;;;;17.96;100.00;100393.41;5091992;28;20051;-72
2023/10/13 08:35:33;;;;;;;20.63;6.03;;;;;;;18.03;100.00;100394.72;5090981;28;20042;-73
2023/10/13 08:43:12;;;;;;;15.60;5.82;;;;;;;18.11;100.00;100370.56;5092230;28;20075;-74
2023/10/13 08:48:13;;;;;;;16.02;6.35;;;;;;;18.23;100.00;100388.25;5092209;28;20028;-74
2023/10/13 08:50:52;;;;;;;16.60;5.65;;;;;;;18.29;100.00;100393.69;5090596;28;20134;-74
2023/10/13 08:56:08;;;;;;;15.18;5.70;;;;;;;18.30;100.00;100376.13;5092557;28;20055;-71
2023/10/13 09:01:34;;;;;;;14.80;5.60;;;;;;;18.36;100.00;100375.00;5089531;28;20387;-73
2023/10/13 09:06:47;;;;;;;14.35;5.40;;;;;;;18.40;100.00;100365.06;5092199;28;20115;-72
2023/10/13 09:09:26;;;;;;;14.20;5.63;;;;;;;18.41;100.00;100359.31;5092057;28;20024;-72
2023/10/13 09:12:10;;;;;;;20.10;5.82;;;;;;;18.41;100.00;100350.28;5091934;28;20491;-73
2023/10/13 09:14:44;;;;;;;16.10;5.93;;;;;;;18.42;100.00;100347.25;5093910;28;20024;-72
2023/10/13 09:19:55;;;;;;;17.35;5.90;;;;;;;18.45;100.00;100350.50;5095828;28;20032;-72
2023/10/13 09:22:26;;;;;;;15.60;5.43;;;;;;;18.47;100.00;100360.09;5094042;28;20430;-72
2023/10/13 09:24:58;;;;;;;16.50;6.10;;;;;;;18.51;100.00;100360.31;5095646;28;20119;-72
2023/10/13 09:27:26;;;;;;;14.65;5.88;;;;;;;18.51;100.00;100361.13;5095329;28;20144;-71
2023/10/13 09:30:28;;;;;;;16.88;5.60;;;;;;;18.51;100.00;100361.13;5094273;28;20028;-72
2023/10/13 09:33:08;;;;;;;18.17;5.93;;;;;;;18.52;100.00;100346.31;5094877;28;20067;-71
2023/10/13 09:35:33;;;;;;;16.65;5.90;;;;;;;18.55;100.00;100348.47;5095349;28;20024;-72
2023/10/13 09:38:02;;;;;;;16.35;5.80;;;;;;;18.60;100.00;100342.94;5095431;28;20489;-72
2023/10/13 09:40:37;;;;;;;17.48;5.97;;;;;;;18.61;100.00;100338.28;5095129;28;20067;-73
2023/10/13 09:43:14;;;;;;;18.70;5.55;;;;;;;18.73;100.00;100341.41;5095317;28;20035;-72
2023/10/13 09:45:43;;;;;;;18.02;5.90;;;;;;;18.73;100.00;100335.13;5095060;28;20109;-72
2023/10/13 09:48:21;;;;;;;17.15;5.45;;;;;;;18.75;100.00;100335.66;5095116;28;20032;-73
2023/10/13 09:50:48;;;;;;;16.77;5.38;;;;;;;18.80;100.00;100330.13;5095363;28;20376;-71
2023/10/13 09:53:17;;;;;;;14.65;5.32;;;;;;;18.87;100.00;100335.25;5095181;28;20027;-70
2023/10/13 09:56:01;;;;;;;21.55;6.18;;;;;;;18.94;100.00;100332.97;5094549;28;20107;-71
2023/10/13 09:58:35;;;;;;;19.17;5.95;;;;;;;18.94;100.00;100319.28;5093494;28;20043;-71
2023/10/13 10:01:20;;;;;;;21.05;5.78;;;;;;;19.02;100.00;100320.53;5090878;28;20085;-72
2023/10/13 10:03:52;;;;;;;17.38;5.80;;;;;;;19.07;100.00;100312.25;5094744;28;20421;-72
2023/10/13 10:06:30;;;;;;;15.35;5.15;;;;;;;19.12;100.00;100314.94;5094860;28;20032;-71
2023/10/13 10:09:14;;;;;;;14.40;5.55;;;;;;;19.12;100.00;100310.25;5094770;28;20471;-72
2023/10/13 10:11:45;;;;;;;17.23;5.80;;;;;;;19.13;100.00;100309.16;5094564;28;20032;-72
2023/10/13 10:14:17;;;;;;;20.57;5.80;;;;;;;19.20;100.00;100306.03;5094870;28;20040;-71
2023/10/13 10:17:01;;;;;;;17.95;5.80;;;;;;;19.21;100.00;100307.66;5094400;28;20512;-72
2023/10/13 10:19:28;;;;;;;17.60;6.25;;;;;;;19.21;100.00;100304.13;5094439;28;20440;-72
2023/10/13 10:22:20;;;;;;;16.00;5.32;;;;;;;19.25;100.00;100303.22;5094213;28;20475;-73
2023/10/13 10:25:02;;;;;;;17.38;5.45;;;;;;;19.28;100.00;100302.63;5094167;28;20028;-72
2023/10/13 10:27:29;;;;;;;18.33;5.50;;;;;;;19.29;100.00;100297.94;5094172;28;20028;-73
2023/10/13 10:29:55;;;;;;;17.33;6.18;;;;;;;19.32;100.00;100296.53;5094408;28;20482;-72
2023/10/13 10:32:20;;;;;;;15.88;5.65;;;;;;;19.32;100.00;100288.31;5094034;28;20103;-73
2023/10/13 10:34:46;;;;;;;17.83;5.97;;;;;;;19.32;100.00;100280.88;5093929;28;20069;-73
2023/10/13 10:37:12;;;;;;;18.95;5.72;;;;;;;19.37;100.00;100291.81;5094345;28;20042;-73
2023/10/13 10:39:49;;;;;;;21.95;6.18;;;;;;;19.40;100.00;100288.47;5093996;28;20111;-72
2023/10/13 10:42:15;;;;;;;20.55;6.35;;;;;;;19.40;100.00;100282.16;5092905;28;20024;-72
2023/10/13 10:44:43;;;;;;;17.95;5.63;;;;;;;19.45;100.00;100295.78;5092612;28;20081;-73
2023/10/13 10:47:11;;;;;;;19.27;5.90;;;;;;;19.47;100.00;100296.31;5093890;28;20107;-72
2023/10/13 10:49:40;;;;;;;24.58;6.40;;;;;;;19.51;100.00;100294.59;5093450;28;20056;-73
2023/10/13 10:52:14;;;;;;;19.23;5.70;;;;;;;19.50;100.00;100281.97;5093723;28;20031;-71
2023/10/13 10:54:44;;;;;;;21.48;5.93;;;;;;;19.51;100.00;100299.28;5092474;28;20020;-72
2023/10/13 10:57:17;;;;;;;19.35;5.93;;;;;;;19.53;100.00;100286.06;5092564;28;20108;-73
2023/10/13 10:59:43;;;;;;;20.10;6.07;;;;;;;19.56;100.00;100291.75;5092254;28;20024;-72
2023/10/13 11:02:27;;;;;;;21.23;6.53;;;;;;;19.57;100.00;100289.84;5089995;28;20030;-72
2023/10/13 11:04:53;;;;;;;15.68;5.50;;;;;;;19.63;100.00;100291.41;5093451;28;20031;-71
2023/10/13 11:07:27;;;;;;;22.80;6.15;;;;;;;19.71;100.00;100300.88;5093494;28;20030;-72
2023/10/13 11:10:07;;;;;;;15.38;5.45;;;;;;;19.70;100.00;100291.84;5091856;28;20032;-73
2023/10/13 11:12:35;;;;;;;15.27;5.50;;;;;;;19.77;100.00;100274.97;5091761;28;20135;-73
2023/10/13 11:15:22;;;;;;;19.30;6.47;;;;;;;19.79;100.00;100278.25;5092139;28;20085;-73
2023/10/13 11:17:54;;;;;;;19.38;5.78;;;;;;;19.87;100.00;100271.25;5092067;28;20035;-73
2023/10/13 11:20:33;;;;;;;18.80;5.70;;;;;;;19.84;100.00;100264.44;5093435;28;20024;-73
2023/10/13 11:23:05;;;;;;;20.15;6.10;;;;;;;19.92;100.00;100262.94;5092241;28;20028;-73
2023/10/13 11:25:37;;;;;;;17.50;5.45;;;;;;;19.95;100.00;100248.59;5092887;28;20027;-72
2023/10/13 11:28:35;;;;;;;18.38;5.90;;;;;;;20.03;100.00;100253.38;5091565;28;20518;-72
2023/10/13 11:31:10;;;;;;;15.43;5.55;;;;;;;20.05;100.00;100226.44;5093060;28;20020;-72
2023/10/13 11:33:36;;;;;;;19.95;6.15;;;;;;;20.07;100.00;100226.94;5092698;28;20439;-71
2023/10/13 11:36:03;;;;;;;19.38;6.35;;;;;;;20.12;100.00;100223.28;5092394;28;20062;-71
2023/10/13 11:38:49;;;;;;;17.38;5.57;;;;;;;20.20;100.00;100222.59;5092615;28;20068;-72
2023/10/13 11:41:15;;;;;;;18.95;6.30;;;;;;;20.28;100.00;100221.88;5091720;28;20031;-73
2023/10/13 11:51:44;;;;;;;15.45;6.13;;;;;;;20.51;100.00;100188.97;5092763;28;20476;-72
2023/10/13 11:54:17;;;;;;;20.23;6.03;;;;;;;20.53;100.00;100208.69;5091609;28;20093;-72
2023/10/13 11:56:44;;;;;;;20.45;6.03;;;;;;;20.54;100.00;100199.34;5092410;28;20382;-73
2023/10/13 11:59:17;;;;;;;19.67;5.97;;;;;;;20.59;100.00;100192.91;5091260;28;20467;-71
2023/10/13 12:04:40;;;;;;;16.23;5.40;;;;;;;20.66;100.00;100185.91;5092593;28;20035;-71
2023/10/13 12:10:33;;;;;;;18.52;6.18;;;;;;;20.80;100.00;100183.13;5030015;28;20095;-74
2023/10/13 12:13:05;;;;;;;19.92;6.45;;;;;;;20.89;100.00;100174.94;5029841;28;20060;-72
2023/10/13 12:15:36;;;;;;;18.63;5.60;;;;;;;20.96;100.00;100178.09;5069548;28;20040;-73
2023/10/13 12:18:03;;;;;;;;;;;;;;;21.01;100.00;100174.41;5093127;28;20027;-70
2023/10/13 12:20:35;;;;;;;20.90;5.95;;;;;;;21.06;100.00;100172.34;5092414;28;19957;-72
2023/10/13 12:23:09;;;;;;;24.35;7.10;;;;;;;21.20;100.00;100174.22;5091033;28;20055;-72
2023/10/13 12:25:54;;;;;;;19.95;6.25;;;;;;;21.23;100.00;100166.16;5091072;28;20026;-71
2023/10/13 12:28:23;;;;;;;18.83;5.88;;;;;;;21.31;100.00;100172.03;5091144;28;20368;-73
2023/10/13 12:30:49;;;;;;;18.85;6.05;;;;;;;21.34;100.00;100166.69;5090637;28;20028;-72
2023/10/13 12:33:24;;;;;;;20.80;6.00;;;;;;;21.36;100.00;100180.13;5092251;28;20032;-73
2023/10/13 12:57:23;;;;;;;;;;;;;;;21.49;100.00;100164.69;5096702;28;20126;-71
2023/10/13 12:59:53;;;;;;;19.60;5.72;;;;;;;21.52;100.00;100164.09;5095698;28;20366;-72
2023/10/13 13:02:24;;;;;;;20.88;5.32;;;;;;;21.60;100.00;100163.31;5093462;28;20027;-72
2023/10/13 13:05:05;;;;;;;;;;;;;;;21.62;100.00;100163.81;5096075;28;20382;-71
2023/10/13 13:07:43;;;;;;;19.73;6.05;;;;;;;21.67;100.00;100162.88;5111389;28;19916;-71
2023/10/13 13:10:11;;;;;;;17.45;4.93;;;;;;;21.66;100.00;100167.53;5095800;28;20024;-71
2023/10/13 13:12:36;;;;;;;15.80;5.00;;;;;;;21.68;100.00;100165.31;5093832;28;20055;-71
2023/10/13 13:15:08;;;;;;;18.63;4.95;;;;;;;21.66;100.00;100137.25;5095814;28;20387;-73
2023/10/13 13:17:38;;;;;;;18.85;5.25;;;;;;;21.74;99.68;100146.69;5095821;28;20459;-72
2023/10/13 13:20:11;;;;;;;18.00;4.80;;;;;;;21.69;100.00;100144.88;5095463;28;20181;-72
2023/10/13 13:22:38;;;;;;;14.52;5.18;;;;;;;21.69;100.00;100147.63;5094039;28;20024;-71
2023/10/13 13:25:07;;;;;;;16.15;4.63;;;;;;;21.73;100.00;100148.63;5095346;28;20028;-72
2023/10/13 13:27:33;;;;;;;14.40;5.00;;;;;;;21.69;100.00;100147.63;5095322;28;20028;-71
2023/10/13 13:30:12;;;;;;;14.30;5.05;;;;;;;21.74;100.00;100147.50;5095163;28;20076;-71
2023/10/13 13:32:40;;;;;;;18.75;5.22;;;;;;;21.70;100.00;100140.19;5093720;28;20039;-72
2023/10/13 13:35:07;;;;;;;20.13;5.43;;;;;;;21.67;98.28;100133.38;5094148;28;20500;-72
2023/10/13 13:37:33;;;;;;;20.33;4.70;;;;;;;21.63;100.00;100126.88;5095159;28;20020;-72
2023/10/13 13:40:21;;;;;;;23.00;5.47;;;;;;;21.59;100.00;100148.75;5093694;28;20027;-72
2023/10/13 13:42:47;;;;;;;19.15;5.10;;;;;;;21.57;100.00;100141.91;5095290;28;20028;-72
2023/10/13 13:45:29;;;;;;;21.10;5.45;;;;;;;21.52;100.00;100145.63;5093802;28;20088;-72
2023/10/13 13:47:54;;;;;;;19.80;5.13;;;;;;;21.51;100.00;100138.47;5094701;28;20028;-72
2023/10/13 13:50:26;;;;;;;19.17;5.13;;;;;;;21.48;100.00;100143.78;5093830;28;20432;-72
2023/10/13 13:52:56;;;;;;;15.73;4.93;;;;;;;21.50;100.00;100136.03;5093693;28;20040;-71
2023/10/13 13:55:28;;;;;;;14.77;4.60;;;;;;;21.53;100.00;100138.16;5093833;28;20020;-71
2023/10/13 13:57:56;;;;;;;19.67;5.07;;;;;;;21.53;100.00;100132.66;5094600;28;20173;-74
2023/10/13 14:00:48;;;;;;;17.55;4.53;;;;;;;21.55;100.00;100127.66;5092388;28;20023;-74
2023/10/13 14:03:30;;;;;;;16.58;5.03;;;;;;;21.50;100.00;100114.03;5094084;28;20044;-71
2023/10/13 14:06:03;;;;;;;19.60;5.18;;;;;;;21.52;100.00;100129.09;5093333;28;20055;-72
2023/10/13 14:08:28;;;;;;;23.55;5.10;;;;;;;21.54;100.00;100137.03;5093529;28;20031;-71
2023/10/13 14:16:29;;;;;;;15.18;5.00;;;;;;;21.50;100.00;100133.28;5070706;28;20024;-72
2023/10/13 14:18:54;;;;;;;20.60;5.40;;;;;;;21.53;100.00;100135.41;5094170;28;20024;-71
2023/10/13 14:21:24;;;;;;;16.70;5.07;;;;;;;21.53;100.00;100135.41;5092888;28;20081;-72
2023/10/13 14:23:53;;;;;;;16.08;4.70;;;;;;;21.58;100.00;100143.53;5092768;28;20016;-72
2023/10/13 14:26:21;;;;;;;14.90;4.97;;;;;;;21.60;100.00;100133.03;5093141;28;20168;-72
2023/10/13 14:28:51;;;;;;;13.82;4.47;;;;;;;21.63;100.00;100140.66;5092613;28;20103;-73
2023/10/13 14:31:20;;;;;;;12.55;4.55;;;;;;;21.69;100.00;100136.63;5092905;28;20028;-72
2023/10/13 14:33:46;;;;;;;22.52;5.25;;;;;;;21.65;99.93;100127.38;5092869;28;20035;-71
2023/10/13 14:36:12;;;;;;;14.15;4.68;;;;;;;21.63;100.00;100135.13;5094291;28;20349;-72
2023/10/13 14:38:37;;;;;;;19.02;4.82;;;;;;;21.61;100.00;100131.91;5092943;28;20053;-72
2023/10/13 14:41:02;;;;;;;11.93;4.85;;;;;;;21.59;100.00;100140.47;5093722;28;20035;-71